createdAt,value
2023-01-13T00:01:15.960Z,95394.81
2023-01-13T00:03:42.964Z,95386.25
2023-01-13T00:06:12.950Z,95381.63
2023-01-13T00:08:39.452Z,95371.53
2023-01-13T00:11:07.083Z,95370.41
2023-01-13T00:13:33.557Z,95378.91
2023-01-13T00:16:02.120Z,95386.31
2023-01-13T00:18:28.792Z,95375.94
2023-01-13T00:21:07.028Z,95374.56
2023-01-13T00:23:34.841Z,95385.09
2023-01-13T00:26:04.458Z,95371.78
2023-01-13T00:28:31.048Z,95359.44
2023-01-13T00:31:04.931Z,95358.63
2023-01-13T00:33:31.458Z,95350.31
2023-01-13T00:36:02.018Z,95350.53
2023-01-13T00:38:30.713Z,95347.63
2023-01-13T00:40:57.102Z,95332.63
2023-01-13T00:43:23.626Z,95331.84
2023-01-13T00:45:50.205Z,95341.13
2023-01-13T00:48:17.098Z,95329.34
2023-01-13T00:50:43.689Z,95321.31
2023-01-13T00:53:10.193Z,95326.16
2023-01-13T00:55:36.700Z,95322.88
2023-01-13T00:58:03.169Z,95322.50
2023-01-13T01:00:30.820Z,95317.19
2023-01-13T01:02:57.593Z,95317.44
2023-01-13T01:05:24.185Z,95321.50
2023-01-13T01:07:50.770Z,95319.09
2023-01-13T01:10:17.661Z,95319.47
2023-01-13T01:12:44.239Z,95329.00
2023-01-13T01:15:11.229Z,95318.25
2023-01-13T01:17:37.688Z,95323.75
2023-01-13T01:20:05.025Z,95323.09
2023-01-13T01:22:31.656Z,95326.75
2023-01-13T01:24:58.122Z,95323.72
2023-01-13T01:27:24.620Z,95319.69
2023-01-13T01:29:51.172Z,95320.50
2023-01-13T01:32:17.678Z,95315.00
2023-01-13T01:34:44.164Z,95321.31
2023-01-13T01:37:10.635Z,95328.41
2023-01-13T01:39:37.114Z,95337.53
2023-01-13T01:42:03.773Z,95344.81
2023-01-13T01:44:42.581Z,95334.28
2023-01-13T01:47:10.885Z,95324.16
2023-01-13T01:49:38.755Z,95328.19
2023-01-13T01:52:14.966Z,95333.28
2023-01-13T01:55:06.294Z,95338.31
2023-01-13T01:57:37.303Z,95338.34
2023-01-13T02:00:04.590Z,95325.53
2023-01-13T02:02:31.216Z,95324.94
2023-01-13T02:04:59.172Z,95316.03
2023-01-13T02:07:31.050Z,95322.91
2023-01-13T02:09:59.898Z,95306.31
2023-01-13T02:12:27.126Z,95306.91
2023-01-13T02:14:53.605Z,95293.34
2023-01-13T02:17:38.404Z,95285.63
2023-01-13T02:20:13.636Z,95284.81
2023-01-13T02:23:09.600Z,95296.97
2023-01-13T02:25:53.897Z,95276.50
2023-01-13T02:28:40.454Z,95281.56
2023-01-13T02:31:09.593Z,95284.81
2023-01-13T02:33:47.699Z,95277.13
2023-01-13T02:36:34.789Z,95258.69
2023-01-13T02:39:08.791Z,95256.22
2023-01-13T02:41:41.078Z,95268.41
2023-01-13T02:44:09.631Z,95262.91
2023-01-13T02:46:54.640Z,95264.16
2023-01-13T02:49:34.824Z,95269.22
2023-01-13T02:52:12.981Z,95266.19
2023-01-13T02:54:42.304Z,95257.44
2023-01-13T02:57:10.345Z,95252.78
2023-01-13T02:59:37.618Z,95254.00
2023-01-13T03:02:04.530Z,95262.72
2023-01-13T03:04:49.557Z,95259.25
2023-01-13T03:07:54.214Z,95253.19
2023-01-13T03:10:44.185Z,95255.19
2023-01-13T03:13:19.765Z,95267.16
2023-01-13T03:16:12.330Z,95263.91
2023-01-13T03:18:42.993Z,95258.44
2023-01-13T03:21:24.553Z,95260.03
2023-01-13T03:23:57.529Z,95269.75
2023-01-13T03:26:50.285Z,95266.16
2023-01-13T03:29:19.773Z,95268.56
2023-01-13T03:31:58.013Z,95258.25
2023-01-13T03:34:30.302Z,95261.69
2023-01-13T03:36:57.962Z,95264.53
2023-01-13T03:39:36.158Z,95262.47
2023-01-13T03:42:07.606Z,95268.56
2023-01-13T03:44:38.737Z,95265.56
2023-01-13T03:47:30.037Z,95272.25
2023-01-13T03:50:06.825Z,95262.72
2023-01-13T03:52:36.687Z,95267.19
2023-01-13T03:55:26.117Z,95271.03
2023-01-13T03:57:56.223Z,95275.69
2023-01-13T04:00:26.156Z,95269.63
2023-01-13T04:03:24.082Z,95279.53
2023-01-13T04:05:53.909Z,95280.34
2023-01-13T04:08:25.634Z,95289.28
2023-01-13T04:11:12.134Z,95289.06
2023-01-13T04:13:40.689Z,95296.56
2023-01-13T04:16:08.476Z,95283.78
2023-01-13T04:18:37.687Z,95294.97
2023-01-13T04:21:07.295Z,95307.31
2023-01-13T04:23:33.900Z,95292.13
2023-01-13T04:26:00.409Z,95298.59
2023-01-13T04:28:26.938Z,95311.56
2023-01-13T04:30:53.516Z,95299.81
2023-01-13T04:33:20.212Z,95302.63
2023-01-13T04:35:47.623Z,95306.06
2023-01-13T04:38:17.673Z,95307.28
2023-01-13T04:40:44.837Z,95297.34
2023-01-13T04:43:11.984Z,95298.53
2023-01-13T04:45:38.852Z,95303.00
2023-01-13T04:48:05.708Z,95302.16
2023-01-13T04:50:32.320Z,95313.28
2023-01-13T04:52:58.907Z,95300.06
2023-01-13T04:55:25.453Z,95301.69
2023-01-13T04:57:52.139Z,95307.19
2023-01-13T05:00:20.819Z,95321.13
2023-01-13T05:02:50.177Z,95311.59
2023-01-13T05:05:16.748Z,95328.03
2023-01-13T05:07:43.341Z,95322.38
2023-01-13T05:10:10.481Z,95329.50
2023-01-13T05:12:37.632Z,95329.69
2023-01-13T05:15:06.765Z,95310.84
2023-01-13T05:17:33.469Z,95317.88
2023-01-13T05:19:59.963Z,95315.44
2023-01-13T05:22:26.525Z,95311.78
2023-01-13T05:24:53.015Z,95323.16
2023-01-13T05:27:19.606Z,95317.47
2023-01-13T05:29:46.101Z,95321.69
2023-01-13T05:32:12.590Z,95316.19
2023-01-13T05:34:39.102Z,95318.47
2023-01-13T05:37:05.722Z,95312.19
2023-01-13T05:39:33.353Z,95312.00
2023-01-13T05:41:59.867Z,95317.03
2023-01-13T05:44:26.367Z,95302.03
2023-01-13T05:46:53.037Z,95306.25
2023-01-13T05:49:19.550Z,95318.03
2023-01-13T05:51:46.059Z,95309.72
2023-01-13T05:54:12.545Z,95308.88
2023-01-13T05:56:39.013Z,95322.44
2023-01-13T05:59:05.548Z,95320.19
2023-01-13T06:01:32.066Z,95322.59
2023-01-13T06:03:58.678Z,95322.13
2023-01-13T06:06:25.162Z,95310.06
2023-01-13T06:08:51.713Z,95310.13
2023-01-13T06:11:19.385Z,95308.28
2023-01-13T06:13:46.388Z,95310.75
2023-01-13T06:16:12.970Z,95302.50
2023-01-13T06:18:39.463Z,95318.88
2023-01-13T06:21:06.167Z,95296.63
2023-01-13T06:23:32.696Z,95297.13
2023-01-13T06:26:05.913Z,95295.22
2023-01-13T06:28:32.487Z,95306.91
2023-01-13T06:31:01.077Z,95299.88
2023-01-13T06:33:35.332Z,95298.31
2023-01-13T06:36:06.246Z,95305.78
2023-01-13T06:38:34.607Z,95310.22
2023-01-13T06:41:01.071Z,95305.81
2023-01-13T06:43:27.843Z,95311.34
2023-01-13T06:45:55.711Z,95326.28
2023-01-13T06:48:24.438Z,95316.59
2023-01-13T06:50:51.149Z,95325.47
2023-01-13T06:53:17.928Z,95330.00
2023-01-13T06:55:44.421Z,95332.03
2023-01-13T06:58:11.052Z,95343.69
2023-01-13T07:00:37.693Z,95339.63
2023-01-13T07:03:12.176Z,95346.75
2023-01-13T07:05:39.295Z,95362.66
2023-01-13T07:08:06.812Z,95352.22
2023-01-13T07:10:34.105Z,95359.91
2023-01-13T07:13:04.712Z,95352.69
2023-01-13T07:15:31.394Z,95357.00
2023-01-13T07:17:59.182Z,95356.91
2023-01-13T07:20:25.746Z,95358.03
2023-01-13T07:22:57.562Z,95371.50
2023-01-13T07:25:24.134Z,95384.19
2023-01-13T07:27:50.869Z,95372.84
2023-01-13T07:30:17.755Z,95380.09
2023-01-13T07:32:44.269Z,95379.31
2023-01-13T07:35:10.752Z,95383.50
2023-01-13T07:37:37.787Z,95380.44
2023-01-13T07:40:04.983Z,95390.09
2023-01-13T07:42:31.536Z,95378.84
2023-01-13T07:44:58.058Z,95384.59
2023-01-13T07:47:24.539Z,95376.47
2023-01-13T07:49:51.046Z,95376.34
2023-01-13T07:52:17.732Z,95388.53
2023-01-13T07:54:44.238Z,95390.63
2023-01-13T07:57:10.808Z,95393.78
2023-01-13T07:59:37.380Z,95397.88
2023-01-13T08:02:04.107Z,95396.25
2023-01-13T08:04:30.911Z,95404.28
2023-01-13T08:06:57.430Z,95399.94
2023-01-13T08:09:23.994Z,95386.56
2023-01-13T08:11:54.361Z,95380.97
2023-01-13T08:14:22.325Z,95397.19
2023-01-13T08:16:49.030Z,95395.13
2023-01-13T08:19:15.701Z,95405.16
2023-01-13T08:21:42.144Z,95397.50
2023-01-13T08:24:10.274Z,95397.75
2023-01-13T08:26:36.734Z,95403.25
2023-01-13T08:29:03.252Z,95400.63
2023-01-13T08:31:29.804Z,95399.72
2023-01-13T08:33:58.530Z,95404.91
2023-01-13T08:36:25.244Z,95406.22
2023-01-13T08:38:52.079Z,95419.97
2023-01-13T08:41:18.608Z,95415.38
2023-01-13T08:43:45.180Z,95418.25
2023-01-13T08:46:11.837Z,95424.47
2023-01-13T08:48:38.656Z,95428.13
2023-01-13T08:51:07.696Z,95432.56
2023-01-13T08:53:34.327Z,95430.38
2023-01-13T08:56:00.975Z,95444.69
2023-01-13T08:58:27.455Z,95449.94
2023-01-13T09:00:53.978Z,95452.13
2023-01-13T09:03:20.563Z,95463.75
2023-01-13T09:05:47.087Z,95467.47
2023-01-13T09:08:13.615Z,95464.06
2023-01-13T09:10:45.130Z,95473.75
2023-01-13T09:13:13.556Z,95473.16
2023-01-13T09:15:45.288Z,95483.69
2023-01-13T09:18:12.403Z,95486.13
2023-01-13T09:20:39.957Z,95481.16
2023-01-13T09:23:10.096Z,95491.38
2023-01-13T09:25:36.899Z,95484.78
2023-01-13T09:28:06.149Z,95474.16
2023-01-13T09:30:32.651Z,95483.50
2023-01-13T09:32:59.726Z,95478.56
2023-01-13T09:35:26.330Z,95478.19
2023-01-13T09:37:52.915Z,95460.41
2023-01-13T09:40:20.751Z,95458.03
2023-01-13T09:43:18.144Z,95475.28
2023-01-13T09:45:48.245Z,95466.94
2023-01-13T09:48:30.581Z,95477.41
2023-01-13T09:51:10.853Z,95482.25
2023-01-13T09:53:38.901Z,95485.19
2023-01-13T09:56:10.573Z,95483.63
2023-01-13T09:58:37.228Z,95491.13
2023-01-13T10:01:29.982Z,95488.88
2023-01-13T10:03:56.474Z,95470.03
2023-01-13T10:06:41.152Z,95476.50
2023-01-13T10:09:13.805Z,95477.56
2023-01-13T10:11:42.426Z,95477.94
2023-01-13T10:14:24.830Z,95481.38
2023-01-13T10:17:14.973Z,95478.75
2023-01-13T10:19:46.515Z,95473.47
2023-01-13T10:22:28.179Z,95480.75
2023-01-13T10:25:06.936Z,95470.75
2023-01-13T10:27:37.740Z,95477.06
2023-01-13T10:30:34.668Z,95459.41
2023-01-13T10:33:02.960Z,95463.31
2023-01-13T10:35:55.777Z,95459.31
2023-01-13T10:38:25.076Z,95473.31
2023-01-13T10:40:57.323Z,95463.34
2023-01-13T10:43:24.240Z,95457.06
2023-01-13T10:46:02.591Z,95464.81
2023-01-13T10:48:34.760Z,95472.19
2023-01-13T10:51:23.456Z,95461.06
2023-01-13T10:54:01.851Z,95459.59
2023-01-13T10:56:32.219Z,95444.97
2023-01-13T10:59:13.894Z,95435.00
2023-01-13T11:01:56.726Z,95436.53
2023-01-13T11:04:36.780Z,95435.03
2023-01-13T11:07:04.332Z,95426.38
2023-01-13T11:09:32.310Z,95419.88
2023-01-13T11:11:59.265Z,95428.22
2023-01-13T11:14:37.568Z,95431.22
2023-01-13T11:17:32.478Z,95436.75
2023-01-13T11:20:11.266Z,95429.97
2023-01-13T11:22:58.503Z,95425.22
2023-01-13T11:25:27.795Z,95429.19
2023-01-13T11:28:01.057Z,95430.81
2023-01-13T11:30:38.862Z,95429.50
2023-01-13T11:33:14.397Z,95432.66
2023-01-13T11:35:45.910Z,95428.00
2023-01-13T11:38:25.930Z,95427.00
2023-01-13T11:40:52.612Z,95426.16
2023-01-13T11:43:42.146Z,95428.66
2023-01-13T11:46:09.923Z,95428.78
2023-01-13T11:48:40.806Z,95435.84
2023-01-13T11:51:10.171Z,95436.25
2023-01-13T11:54:03.510Z,95441.41
2023-01-13T11:57:02.284Z,95446.56
2023-01-13T11:59:39.726Z,95429.22
2023-01-13T12:02:27.705Z,95431.91
2023-01-13T12:05:02.762Z,95431.50
2023-01-13T12:08:20.477Z,95445.91
2023-01-13T12:11:05.648Z,95454.13
2023-01-13T12:13:43.918Z,95447.00
2023-01-13T12:16:15.287Z,95450.22
2023-01-13T12:19:00.044Z,95459.88
2023-01-13T12:21:32.633Z,95445.72
2023-01-13T12:24:05.909Z,95440.78
2023-01-13T12:26:37.396Z,95440.91
2023-01-13T12:29:13.188Z,95446.88
2023-01-13T12:31:41.793Z,95446.47
2023-01-13T12:34:30.277Z,95446.50
2023-01-13T12:37:10.080Z,95444.91
2023-01-13T12:39:42.505Z,95458.41
2023-01-13T12:42:18.822Z,95464.28
2023-01-13T12:45:10.076Z,95466.97
2023-01-13T12:47:40.139Z,95463.06
2023-01-13T12:50:40.434Z,95466.94
2023-01-13T12:53:25.189Z,95459.88
2023-01-13T12:55:52.024Z,95454.44
2023-01-13T12:58:26.511Z,95458.09
2023-01-13T13:00:59.180Z,95451.00
2023-01-13T13:03:34.415Z,95451.41
2023-01-13T13:06:07.053Z,95447.00
2023-01-13T13:08:48.517Z,95439.78
2023-01-13T13:11:15.057Z,95441.72
2023-01-13T13:13:47.126Z,95439.16
2023-01-13T13:16:25.953Z,95446.50
2023-01-13T13:18:53.540Z,95457.31
2023-01-13T13:21:20.164Z,95452.50
2023-01-13T13:23:52.907Z,95461.69
2023-01-13T13:26:19.316Z,95476.28
2023-01-13T13:29:12.045Z,95455.59
2023-01-13T13:31:44.497Z,95465.22
2023-01-13T13:34:43.384Z,95462.56
2023-01-13T13:38:01.098Z,95456.00
2023-01-13T13:40:32.658Z,95455.19
2023-01-13T13:42:59.368Z,95454.16
2023-01-13T13:45:28.759Z,95464.63
2023-01-13T13:47:55.328Z,95464.34
2023-01-13T13:50:21.949Z,95468.88
2023-01-13T13:53:09.059Z,95484.44
2023-01-13T13:55:36.669Z,95460.56
2023-01-13T13:58:03.152Z,95483.69
2023-01-13T14:00:32.102Z,95480.97
2023-01-13T14:03:18.953Z,95490.75
2023-01-13T14:06:00.051Z,95493.94
2023-01-13T14:08:33.022Z,95497.44
2023-01-13T14:10:59.615Z,95503.13
2023-01-13T14:13:31.205Z,95498.63
2023-01-13T14:16:03.304Z,95503.81
2023-01-13T14:18:33.868Z,95507.03
2023-01-13T14:21:16.614Z,95494.66
2023-01-13T14:23:50.870Z,95475.88
2023-01-13T14:26:17.789Z,95475.84
2023-01-13T14:28:44.585Z,95483.16
2023-01-13T14:31:13.250Z,95473.72
2023-01-13T14:33:43.516Z,95477.53
2023-01-13T14:36:14.548Z,95484.59
2023-01-13T14:38:42.394Z,95475.63
2023-01-13T14:41:11.769Z,95483.78
2023-01-13T14:43:43.267Z,95489.50
2023-01-13T14:46:09.850Z,95488.69
2023-01-13T14:48:36.651Z,95488.16
2023-01-13T14:51:05.901Z,95501.63
2023-01-13T14:53:35.390Z,95515.59
2023-01-13T14:56:38.835Z,95504.78
2023-01-13T14:59:42.512Z,95521.41
2023-01-13T15:02:27.770Z,95521.88
2023-01-13T15:04:55.082Z,95516.97
2023-01-13T15:07:26.749Z,95521.41
2023-01-13T15:09:55.770Z,95527.59
2023-01-13T15:12:34.172Z,95529.75
2023-01-13T15:15:03.691Z,95530.63
2023-01-13T15:17:30.445Z,95534.31
2023-01-13T15:19:56.929Z,95545.63
2023-01-13T15:22:23.518Z,95530.69
2023-01-13T15:24:49.985Z,95540.31
2023-01-13T15:27:22.539Z,95551.31
2023-01-13T15:29:49.269Z,95558.66
2023-01-13T15:32:20.556Z,95563.63
2023-01-13T15:34:47.715Z,95553.81
2023-01-13T15:37:15.561Z,95577.22
2023-01-13T15:39:42.007Z,95572.13
2023-01-13T15:42:12.232Z,95573.31
2023-01-13T15:44:38.628Z,95582.44
2023-01-13T15:47:06.997Z,95594.69
2023-01-13T15:49:39.971Z,95595.69
2023-01-13T15:52:33.100Z,95590.41
2023-01-13T15:54:59.672Z,95594.50
2023-01-13T15:57:28.229Z,95597.56
2023-01-13T15:59:57.993Z,95596.75
2023-01-13T16:02:24.989Z,95607.91
2023-01-13T16:04:52.201Z,95599.16
2023-01-13T16:07:20.802Z,95597.75
2023-01-13T16:09:47.419Z,95595.91
2023-01-13T16:12:14.005Z,95592.28
2023-01-13T16:14:40.838Z,95601.19
2023-01-13T16:17:26.768Z,95596.72
2023-01-13T16:19:53.302Z,95608.50
2023-01-13T16:22:19.852Z,95613.59
2023-01-13T16:24:46.485Z,95612.38
2023-01-13T16:27:13.411Z,95614.00
2023-01-13T16:29:40.387Z,95616.84
2023-01-13T16:32:06.866Z,95617.66
2023-01-13T16:34:35.214Z,95610.34
2023-01-13T16:37:09.427Z,95626.00
2023-01-13T16:39:35.964Z,95625.38
2023-01-13T16:42:04.244Z,95634.13
2023-01-13T16:44:30.790Z,95646.31
2023-01-13T16:46:57.364Z,95644.91
2023-01-13T16:49:23.939Z,95651.78
2023-01-13T16:51:50.468Z,95655.44
2023-01-13T16:54:16.974Z,95662.34
2023-01-13T16:56:45.724Z,95670.31
2023-01-13T16:59:13.521Z,95681.88
2023-01-13T17:01:41.599Z,95690.84
2023-01-13T17:04:14.925Z,95688.38
2023-01-13T17:06:44.851Z,95701.38
2023-01-13T17:09:16.737Z,95694.06
2023-01-13T17:11:43.668Z,95700.56
2023-01-13T17:14:18.983Z,95707.09
2023-01-13T17:16:46.381Z,95707.88
2023-01-13T17:19:13.781Z,95709.88
2023-01-13T17:21:40.416Z,95699.53
2023-01-13T17:24:07.157Z,95702.34
2023-01-13T17:26:41.698Z,95695.66
2023-01-13T17:29:20.889Z,95710.28
2023-01-13T17:31:48.263Z,95706.88
2023-01-13T17:34:14.977Z,95712.31
2023-01-13T17:36:41.549Z,95711.84
2023-01-13T17:39:08.179Z,95716.94
2023-01-13T17:41:34.700Z,95724.59
2023-01-13T17:44:01.257Z,95722.56
2023-01-13T17:46:27.798Z,95714.25
2023-01-13T17:48:54.782Z,95708.94
2023-01-13T17:51:22.245Z,95719.50
2023-01-13T17:53:48.791Z,95722.75
2023-01-13T17:56:15.394Z,95725.63
2023-01-13T17:58:42.059Z,95722.03
2023-01-13T18:01:16.492Z,95721.44
2023-01-13T18:03:43.407Z,95726.06
2023-01-13T18:06:18.614Z,95725.19
2023-01-13T18:08:45.928Z,95729.19
2023-01-13T18:11:12.955Z,95741.88
2023-01-13T18:13:40.452Z,95740.47
2023-01-13T18:16:09.432Z,95752.44
2023-01-13T18:18:35.984Z,95753.25
2023-01-13T18:21:03.636Z,95755.69
2023-01-13T18:23:30.190Z,95762.28
2023-01-13T18:25:56.674Z,95752.56
2023-01-13T18:28:23.303Z,95767.56
2023-01-13T18:30:49.907Z,95755.38
2023-01-13T18:33:17.062Z,95754.09
2023-01-13T18:35:43.604Z,95767.84
2023-01-13T18:38:15.916Z,95769.91
2023-01-13T18:40:46.695Z,95766.63
2023-01-13T18:43:13.502Z,95781.81
2023-01-13T18:45:40.104Z,95774.75
2023-01-13T18:48:06.979Z,95779.97
2023-01-13T18:50:33.659Z,95773.41
2023-01-13T18:53:01.224Z,95784.09
2023-01-13T18:55:28.029Z,95789.66
2023-01-13T18:57:55.598Z,95793.81
2023-01-13T19:00:22.870Z,95787.00
2023-01-13T19:02:49.900Z,95798.03
2023-01-13T19:05:16.662Z,95803.22
2023-01-13T19:07:43.988Z,95805.09
2023-01-13T19:10:11.398Z,95810.78
2023-01-13T19:12:37.981Z,95814.81
2023-01-13T19:15:04.874Z,95821.03
2023-01-13T19:17:33.065Z,95822.00
2023-01-13T19:20:03.744Z,95822.47
2023-01-13T19:22:32.931Z,95819.63
2023-01-13T19:25:00.301Z,95816.38
2023-01-13T19:27:27.512Z,95825.28
2023-01-13T19:29:54.391Z,95823.59
2023-01-13T19:32:24.283Z,95821.63
2023-01-13T19:34:51.011Z,95814.38
2023-01-13T19:37:18.701Z,95829.19
2023-01-13T19:39:45.337Z,95841.56
2023-01-13T19:42:12.180Z,95846.00
2023-01-13T19:44:38.739Z,95850.34
2023-01-13T19:47:05.369Z,95863.13
2023-01-13T19:49:32.833Z,95865.13
2023-01-13T19:51:59.762Z,95864.44
2023-01-13T19:54:26.568Z,95859.41
2023-01-13T19:56:53.099Z,95858.53
2023-01-13T19:59:19.592Z,95854.94
2023-01-13T20:01:46.159Z,95863.53
2023-01-13T20:04:12.697Z,95866.72
2023-01-13T20:06:39.707Z,95881.41
2023-01-13T20:09:06.740Z,95870.88
2023-01-13T20:11:33.245Z,95870.56
2023-01-13T20:14:02.800Z,95863.88
2023-01-13T20:16:29.944Z,95866.03
2023-01-13T20:18:56.678Z,95854.03
2023-01-13T20:21:23.237Z,95850.84
2023-01-13T20:23:51.360Z,95859.88
2023-01-13T20:26:18.686Z,95866.72
2023-01-13T20:28:46.497Z,95853.84
2023-01-13T20:31:14.019Z,95848.28
2023-01-13T20:33:41.051Z,95854.34
2023-01-13T20:36:08.426Z,95864.34
2023-01-13T20:38:34.889Z,95871.41
2023-01-13T20:41:01.693Z,95875.50
2023-01-13T20:43:28.255Z,95874.38
2023-01-13T20:45:54.788Z,95877.91
2023-01-13T20:48:21.815Z,95881.91
2023-01-13T20:50:53.358Z,95884.91
2023-01-13T20:53:19.850Z,95870.81
2023-01-13T20:55:46.328Z,95873.56
2023-01-13T20:58:12.789Z,95874.97
2023-01-13T21:00:39.438Z,95879.88
2023-01-13T21:03:06.081Z,95891.69
2023-01-13T21:05:35.660Z,95887.41
2023-01-13T21:08:02.389Z,95888.56
2023-01-13T21:10:29.434Z,95889.22
2023-01-13T21:12:56.029Z,95898.19
2023-01-13T21:15:22.793Z,95893.75
2023-01-13T21:17:50.936Z,95891.75
2023-01-13T21:20:17.485Z,95884.00
2023-01-13T21:22:45.754Z,95877.63
2023-01-13T21:25:12.587Z,95881.88
2023-01-13T21:27:39.056Z,95875.56
2023-01-13T21:30:06.561Z,95875.09
2023-01-13T21:32:33.187Z,95886.41
2023-01-13T21:34:59.788Z,95879.66
2023-01-13T21:37:26.306Z,95868.72
2023-01-13T21:39:52.928Z,95868.47
2023-01-13T21:42:19.519Z,95869.84
2023-01-13T21:44:46.154Z,95859.25
2023-01-13T21:47:17.296Z,95872.38
2023-01-13T21:49:43.923Z,95871.13
2023-01-13T21:52:11.959Z,95872.00
2023-01-13T21:54:38.640Z,95876.94
2023-01-13T21:57:05.237Z,95871.81
2023-01-13T21:59:31.740Z,95871.34
2023-01-13T22:02:23.998Z,95878.47
2023-01-13T22:04:44.919Z,95886.63
2023-01-13T22:07:11.356Z,95891.31
2023-01-13T22:09:38.181Z,95882.81
2023-01-13T22:12:05.048Z,95895.06
2023-01-13T22:14:31.931Z,95899.72
2023-01-13T22:16:58.545Z,95890.47
2023-01-13T22:19:25.175Z,95895.56
2023-01-13T22:21:51.839Z,95901.03
2023-01-13T22:24:18.376Z,95902.34
2023-01-13T22:26:45.250Z,95905.25
2023-01-13T22:29:11.876Z,95888.69
2023-01-13T22:31:38.486Z,95896.06
2023-01-13T22:34:05.106Z,95890.84
2023-01-13T22:36:31.785Z,95889.69
2023-01-13T22:38:58.505Z,95892.13
2023-01-13T22:41:25.074Z,95886.63
2023-01-13T22:43:51.567Z,95899.22
2023-01-13T22:46:18.139Z,95898.75
2023-01-13T22:48:45.763Z,95890.94
2023-01-13T22:51:16.131Z,95885.94
2023-01-13T22:53:43.152Z,95887.59
2023-01-13T22:56:21.379Z,95888.94
2023-01-13T22:58:48.325Z,95889.78
2023-01-13T23:01:16.652Z,95893.06
2023-01-13T23:03:43.459Z,95898.16
2023-01-13T23:06:10.591Z,95890.69
2023-01-13T23:08:37.772Z,95894.03
2023-01-13T23:11:08.887Z,95893.38
2023-01-13T23:13:36.668Z,95892.00
2023-01-13T23:16:08.057Z,95894.47
2023-01-13T23:18:34.963Z,95893.16
2023-01-13T23:21:10.817Z,95885.22
2023-01-13T23:23:38.004Z,95887.56
2023-01-13T23:26:06.063Z,95877.25
2023-01-13T23:28:34.206Z,95870.81
2023-01-13T23:31:01.032Z,95865.81
2023-01-13T23:33:27.715Z,95864.06
2023-01-13T23:36:00.886Z,95867.59
2023-01-13T23:38:28.760Z,95865.78
2023-01-13T23:40:55.634Z,95862.94
2023-01-13T23:43:25.794Z,95858.16
2023-01-13T23:45:53.389Z,95858.31
2023-01-13T23:48:19.884Z,95857.41
2023-01-13T23:50:56.960Z,95850.69
2023-01-13T23:53:23.642Z,95849.66
2023-01-13T23:55:56.606Z,95857.09
2023-01-13T23:58:23.239Z,95848.72
